Malaysia Virtual Airlines Airport Information Service

Penang / Bayan Lepas

ICAO: WMKP Country: Malaysia
Latitude: 5.29714 Longitude: 100.277
Latest Arrival : MH1138 (WMKK-WMKP) Latest Departure : MH1137 (WMKP-WMKK)


WX CaptureLIVE
Data provided by noaa.gov | Fetched at 07:40:52

METAR : WMKP 160700Z 23009KT 200V260 9999 FEW020 31/24 Q1009 NOSIG

TAF : WMKP 160500Z 1606/1706 24006KT 9999 FEW020 TEMPO 1609/1613 6000 -TSRA FEW010 FEW017CB BECMG 1610/1612 VRB03KT 8000 FEW025 TEMPO 1620/1700 5000 TSRA FEW010 FEW017CB


Runway Data for WMKP
Data provided by openaviationdata.com

Runway ID Mag Var Hdg Length Elevation Surface ILS Freq ILS Id ILS Slope
4 0 42° 10954 ft 11 ft Asphalt 109.9 IPG 3
22 0 222° 10954 ft 11 ft Asphalt -- -- --

Penang / Bayan Lepas, Malaysia
Use only for reference purposes



Not for navigational purposes.